F/V Le Natif 2 — FKVW — position and weather

sailwx.info

Track history (hours):
 
Tides and Currents Weather Stations Pressure Air Temp Water Temp Dewpoint Dewpoint Depression Visibility Wind Speed Wind Dir Waves Ship Positions

F/V Le Natif 2

Last reported at 2017-Jan-15 08:33 UTC. Time now 2017-Jan-17 12:58 UTC.
Position N 46°07' W 001°52'.

Length 16 m.

Type: Fishing. MMSI: 228131600.

Date/timePositionNaut miles runAvg speedWind from/ knotsBaromVisibWave heightAir tempDewpointWater temp
2017-Jan-15 08:33N 46°07' W 001°52'9 9.1
2017-Jan-15 07:33N 46°16' W 001°53'9 8.6
2017-Jan-15 06:33N 46°25' W 001°54'9 8.8
2017-Jan-15 05:33N 46°33' W 001°56'8 8.3
2017-Jan-15 04:33N 46°42' W 001°57'0 0.0
2017-Jan-13 06:14N 46°42' W 001°56'0 0.0
2017-Jan-13 05:33N 46°42' W 001°56'0 0.0
2017-Jan-13 04:33N 46°42' W 001°56'0 0.1
2017-Jan-13 03:33N 46°42' W 001°57'0 0.1
2017-Jan-13 02:33N 46°42' W 001°56'3 2.5
2017-Jan-13 01:33N 46°39' W 001°58'6 6.2
2017-Jan-13 00:33N 46°33' W 001°56'6 6.0
2017-Jan-12 23:33N 46°27' W 001°55'6 5.9
2017-Jan-12 22:33N 46°21' W 001°54'6 5.9
2017-Jan-12 21:33N 46°15' W 001°53'6 5.8
2017-Jan-12 20:33N 46°10' W 001°52'52 2.2
2017-Jan-11 20:32N 45°19' W 001°41'60 1.6
2017-Jan-10 07:20N 46°17' W 002°01'7 8.6
2017-Jan-10 06:33N 46°23' W 002°00'9 8.7
2017-Jan-10 05:33N 46°32' W 001°59'9 8.8
2017-Jan-10 04:32N 46°41' W 001°58'3 2.7
2017-Jan-10 03:33N 46°39' W 001°60'9 8.6
2017-Jan-10 02:33N 46°32' W 002°07'9 8.4
2017-Jan-10 01:31N 46°25' W 002°15'6 0.5
2017-Jan-09 12:29N 46°19' W 002°14'2 0.3
2017-Jan-09 06:33N 46°18' W 002°16'9 1.2
2017-Jan-08 23:22N 46°27' W 002°12'7 8.8
2017-Jan-08 22:33N 46°33' W 002°06'9 8.7
2017-Jan-08 21:33N 46°40' W 001°59'2 2.4
2017-Jan-08 20:33N 46°42' W 001°57'9 9.1
2017-Jan-08 19:33N 46°33' W 002°02'9 9.1
2017-Jan-08 18:33N 46°25' W 002°08'12 5.6
2017-Jan-08 16:24N 46°14' W 002°14'5 1.8
2017-Jan-08 13:32N 46°19' W 002°16'2 2.5
2017-Jan-08 12:33N 46°18' W 002°12'1 0.1
2017-Jan-08 06:30N 46°19' W 002°14'3 3.1
2017-Jan-08 05:23N 46°15' W 002°12'12 1.1
2017-Jan-07 18:06N 46°11' W 002°28'11 4.0
2017-Jan-07 15:13N 46°19' W 002°16'2 2.9
2017-Jan-07 14:33N 46°19' W 002°14'3 2.9
2017-Jan-07 13:33N 46°16' W 002°12'4 1.5
2017-Jan-07 11:13N 46°15' W 002°17'3 3.2
2017-Jan-07 10:25N 46°17' W 002°18'3 3.1
2017-Jan-07 09:26N 46°20' W 002°18'4 4.9
2017-Jan-07 08:32N 46°24' W 002°15'8 8.1
2017-Jan-07 07:33N 46°31' W 002°09'8 8.1
2017-Jan-07 06:33N 46°37' W 002°02'6 5.5
2017-Jan-07 05:33N 46°42' W 001°56'0 0.0
2017-Jan-06 11:33N 46°42' W 001°56'0 0.0
2017-Jan-06 10:33N 46°42' W 001°56'0 0.1
2017-Jan-06 09:33N 46°42' W 001°56'0 0.0
2017-Jan-05 13:33N 46°42' W 001°56'0 0.0
2017-Jan-05 12:34N 46°42' W 001°56'0 0.0
2017-Jan-05 11:33N 46°42' W 001°56'5 4.9
2017-Jan-05 10:33N 46°38' W 002°01'5 4.9
2017-Jan-05 09:33N 46°42' W 001°56'  
Track history (hours):
 
Tides and Currents Weather Stations Pressure Air Temp Water Temp Dewpoint Dewpoint Depression Visibility Wind Speed Wind Dir Waves Ship Positions

F/V Le Natif 2

Last reported at 2017-Jan-15 08:33 UTC. Time now 2017-Jan-17 12:58 UTC.
Position N 46°07' W 001°52'.

Length 16 m.

Type: Fishing. MMSI: 228131600.

Date/timePositionNaut miles runAvg speedWind from/ knotsBaromVisibWave heightAir tempDewpointWater temp
2017-Jan-15 08:33N 46°07' W 001°52'9 9.1
2017-Jan-15 07:33N 46°16' W 001°53'9 8.6
2017-Jan-15 06:33N 46°25' W 001°54'9 8.8
2017-Jan-15 05:33N 46°33' W 001°56'8 8.3
2017-Jan-15 04:33N 46°42' W 001°57'0 0.0
2017-Jan-13 06:14N 46°42' W 001°56'0 0.0
2017-Jan-13 05:33N 46°42' W 001°56'0 0.0
2017-Jan-13 04:33N 46°42' W 001°56'0 0.1
2017-Jan-13 03:33N 46°42' W 001°57'0 0.1
2017-Jan-13 02:33N 46°42' W 001°56'3 2.5
2017-Jan-13 01:33N 46°39' W 001°58'6 6.2
2017-Jan-13 00:33N 46°33' W 001°56'6 6.0
2017-Jan-12 23:33N 46°27' W 001°55'6 5.9
2017-Jan-12 22:33N 46°21' W 001°54'6 5.9
2017-Jan-12 21:33N 46°15' W 001°53'6 5.8
2017-Jan-12 20:33N 46°10' W 001°52'52 2.2
2017-Jan-11 20:32N 45°19' W 001°41'60 1.6
2017-Jan-10 07:20N 46°17' W 002°01'7 8.6
2017-Jan-10 06:33N 46°23' W 002°00'9 8.7
2017-Jan-10 05:33N 46°32' W 001°59'9 8.8
2017-Jan-10 04:32N 46°41' W 001°58'3 2.7
2017-Jan-10 03:33N 46°39' W 001°60'9 8.6
2017-Jan-10 02:33N 46°32' W 002°07'9 8.4
2017-Jan-10 01:31N 46°25' W 002°15'6 0.5
2017-Jan-09 12:29N 46°19' W 002°14'2 0.3
2017-Jan-09 06:33N 46°18' W 002°16'9 1.2
2017-Jan-08 23:22N 46°27' W 002°12'7 8.8
2017-Jan-08 22:33N 46°33' W 002°06'9 8.7
2017-Jan-08 21:33N 46°40' W 001°59'2 2.4
2017-Jan-08 20:33N 46°42' W 001°57'9 9.1
2017-Jan-08 19:33N 46°33' W 002°02'9 9.1
2017-Jan-08 18:33N 46°25' W 002°08'12 5.6
2017-Jan-08 16:24N 46°14' W 002°14'5 1.8
2017-Jan-08 13:32N 46°19' W 002°16'2 2.5
2017-Jan-08 12:33N 46°18' W 002°12'1 0.1
2017-Jan-08 06:30N 46°19' W 002°14'3 3.1
2017-Jan-08 05:23N 46°15' W 002°12'12 1.1
2017-Jan-07 18:06N 46°11' W 002°28'11 4.0
2017-Jan-07 15:13N 46°19' W 002°16'2 2.9
2017-Jan-07 14:33N 46°19' W 002°14'3 2.9
2017-Jan-07 13:33N 46°16' W 002°12'4 1.5
2017-Jan-07 11:13N 46°15' W 002°17'3 3.2
2017-Jan-07 10:25N 46°17' W 002°18'3 3.1
2017-Jan-07 09:26N 46°20' W 002°18'4 4.9
2017-Jan-07 08:32N 46°24' W 002°15'8 8.1
2017-Jan-07 07:33N 46°31' W 002°09'8 8.1
2017-Jan-07 06:33N 46°37' W 002°02'6 5.5
2017-Jan-07 05:33N 46°42' W 001°56'0 0.0
2017-Jan-06 11:33N 46°42' W 001°56'0 0.0
2017-Jan-06 10:33N 46°42' W 001°56'0 0.1
2017-Jan-06 09:33N 46°42' W 001°56'0 0.0
2017-Jan-05 13:33N 46°42' W 001°56'0 0.0
2017-Jan-05 12:34N 46°42' W 001°56'0 0.0
2017-Jan-05 11:33N 46°42' W 001°56'5 4.9
2017-Jan-05 10:33N 46°38' W 002°01'5 4.9
2017-Jan-05 09:33N 46°42' W 001°56'  

Dump ship's entire track history